Time,TemperatureF,DewpointF,PressureIn,WindDirection,WindDirectionDegrees,WindSpeedMPH,WindSpeedGustMPH,Humidity,HourlyPrecipIn,Conditions,Clouds,dailyrainin,SolarRadiationWatts/m^2,SoftwareType,DateUTC
2013-03-31 00:02:00,44.0,37.0,-100.00,NNE,29,3.0,6.0,78,-99.99,,,0.00,0.120000,,2013-03-31 07:02:00,
2013-03-31 00:12:00,44.0,37.0,-100.00,NNE,29,3.0,6.0,78,-99.99,,,0.00,0.120000,,2013-03-31 07:12:00,
2013-03-31 01:42:00,41.0,36.0,-100.00,NNE,30,5.0,7.0,82,-99.99,,,0.00,0.120000,,2013-03-31 08:42:00,
2013-03-31 01:52:00,41.0,36.0,-100.00,NNE,30,5.0,7.0,82,-99.99,,,0.00,0.120000,,2013-03-31 08:52:00,
2013-03-31 02:01:00,41.0,36.0,-100.00,NNE,30,5.0,7.0,82,-99.99,,,0.00,0.120000,,2013-03-31 09:01:00,
2013-03-31 02:12:00,41.0,36.0,-100.00,NNE,30,5.0,7.0,82,-99.99,,,0.00,0.120000,,2013-03-31 09:12:00,
2013-03-31 02:42:00,39.0,35.0,-100.00,NE,34,4.0,6.0,86,-99.99,,,0.00,0.120000,,2013-03-31 09:42:00,
2013-03-31 02:53:00,39.0,35.0,-100.00,NE,34,4.0,6.0,86,-99.99,,,0.00,0.120000,,2013-03-31 09:53:00,
2013-03-31 03:03:00,39.0,35.0,-100.00,NE,34,4.0,6.0,86,-99.99,,,0.00,0.120000,,2013-03-31 10:03:00,
2013-03-31 03:12:00,39.0,35.0,-100.00,NE,34,4.0,6.0,86,-99.99,,,0.00,0.120000,,2013-03-31 10:12:00,
2013-03-31 03:42:00,38.0,34.0,-100.00,NE,42,4.0,7.0,87,-99.99,,,0.00,0.120000,,2013-03-31 10:42:00,
2013-03-31 03:53:00,38.0,34.0,-100.00,NE,42,4.0,7.0,87,-99.99,,,0.00,0.120000,,2013-03-31 10:53:00,
2013-03-31 04:02:00,38.0,34.0,-100.00,NE,42,4.0,7.0,87,-99.99,,,0.00,0.120000,,2013-03-31 11:02:00,
2013-03-31 04:12:00,38.0,34.0,-100.00,NE,42,4.0,7.0,87,-99.99,,,0.00,0.120000,,2013-03-31 11:12:00,
2013-03-31 04:42:00,37.0,34.0,-100.00,NE,43,4.0,6.0,89,-99.99,,,0.00,0.120000,,2013-03-31 11:42:00,
2013-03-31 04:52:00,37.0,34.0,-100.00,NE,43,4.0,6.0,89,-99.99,,,0.00,0.120000,,2013-03-31 11:52:00,
2013-03-31 05:02:00,37.0,34.0,-100.00,NE,43,4.0,6.0,89,-99.99,,,0.00,0.120000,,2013-03-31 12:02:00,
2013-03-31 05:12:00,37.0,34.0,-100.00,NE,43,4.0,6.0,89,-99.99,,,0.00,0.120000,,2013-03-31 12:12:00,
2013-03-31 07:42:00,35.0,32.0,-100.00,NNE,22,4.0,5.0,90,-99.99,,,0.00,21.969999,,2013-03-31 14:42:00,
2013-03-31 07:52:00,35.0,32.0,-100.00,NNE,22,4.0,5.0,90,-99.99,,,0.00,21.969999,,2013-03-31 14:52:00,
2013-03-31 08:02:00,35.0,32.0,-100.00,NNE,22,4.0,5.0,90,-99.99,,,0.00,21.969999,,2013-03-31 15:02:00,
2013-03-31 08:12:00,35.0,32.0,-100.00,NNE,22,4.0,5.0,90,-99.99,,,0.00,21.969999,,2013-03-31 15:12:00,
2013-03-31 08:43:00,39.0,35.0,-100.00,NE,40,2.0,3.0,85,-99.99,,,0.00,255.339996,,2013-03-31 15:43:00,
2013-03-31 08:53:00,39.0,35.0,-100.00,NE,40,2.0,3.0,85,-99.99,,,0.00,255.339996,,2013-03-31 15:53:00,
2013-03-31 09:02:00,39.0,35.0,-100.00,NE,40,2.0,3.0,85,-99.99,,,0.00,255.339996,,2013-03-31 16:02:00,
2013-03-31 09:13:00,39.0,35.0,-100.00,NE,40,2.0,3.0,85,-99.99,,,0.00,255.339996,,2013-03-31 16:13:00,
2013-03-31 09:42:00,43.0,36.0,-100.00,SE,131,3.0,5.0,76,-99.99,,,-99.99,438.609985,,2013-03-31 16:42:00,
2013-03-31 09:53:00,43.0,36.0,-100.00,SE,131,3.0,5.0,76,-99.99,,,-99.99,438.609985,,2013-03-31 16:53:00,
2013-03-31 10:02:00,43.0,36.0,-100.00,SE,131,3.0,5.0,76,-99.99,,,-99.99,438.609985,,2013-03-31 17:02:00,
2013-03-31 10:12:00,43.0,36.0,-100.00,SE,131,3.0,5.0,76,-99.99,,,-99.99,438.609985,,2013-03-31 17:12:00,
2013-03-31 10:42:00,46.0,37.0,-100.00,SW,220,2.0,3.0,68,-99.99,,,0.00,599.929993,,2013-03-31 17:42:00,
2013-03-31 10:52:00,46.0,37.0,-100.00,SW,220,2.0,3.0,68,-99.99,,,0.00,599.929993,,2013-03-31 17:52:00,
2013-03-31 11:02:00,46.0,37.0,-100.00,SW,220,2.0,3.0,68,-99.99,,,0.00,599.929993,,2013-03-31 18:02:00,
2013-03-31 11:12:00,46.0,37.0,-100.00,SW,220,2.0,3.0,68,-99.99,,,0.00,599.929993,,2013-03-31 18:12:00,
2013-03-31 11:42:00,49.0,38.0,-100.00,WSW,246,3.0,5.0,64,-99.99,,,0.00,719.750000,,2013-03-31 18:42:00,
2013-03-31 11:53:00,49.0,38.0,-100.00,WSW,246,3.0,5.0,64,-99.99,,,0.00,719.750000,,2013-03-31 18:53:00,
2013-03-31 12:02:00,49.0,38.0,-100.00,WSW,246,3.0,5.0,64,-99.99,,,0.00,719.750000,,2013-03-31 19:02:00,
2013-03-31 12:42:00,55.0,38.0,-100.00,SW,233,2.0,4.0,52,-99.99,,,0.00,792.739990,,2013-03-31 19:42:00,
2013-03-31 12:54:00,55.0,38.0,-100.00,SW,233,2.0,4.0,52,-99.99,,,0.00,792.739990,,2013-03-31 19:54:00,
2013-03-31 13:02:00,55.0,38.0,-100.00,SW,233,2.0,4.0,52,-99.99,,,0.00,792.739990,,2013-03-31 20:02:00,
2013-03-31 13:12:00,55.0,38.0,-100.00,SW,233,2.0,4.0,52,-99.99,,,0.00,792.739990,,2013-03-31 20:12:00,
2013-03-31 13:42:00,60.0,37.0,-100.00,SW,214,2.0,4.0,42,-99.99,,,0.00,811.099976,,2013-03-31 20:42:00,
2013-03-31 13:52:00,60.0,37.0,-100.00,SW,214,2.0,4.0,42,-99.99,,,0.00,811.099976,,2013-03-31 20:52:00,
2013-03-31 14:02:00,60.0,37.0,-100.00,SW,214,2.0,4.0,42,-99.99,,,0.00,811.099976,,2013-03-31 21:02:00,
2013-03-31 14:12:00,60.0,37.0,-100.00,SW,214,2.0,4.0,42,-99.99,,,0.00,811.099976,,2013-03-31 21:12:00,
2013-03-31 14:43:00,63.0,38.0,-100.00,SSW,213,3.0,5.0,39,-99.99,,,0.00,769.260010,,2013-03-31 21:43:00,
2013-03-31 14:53:00,63.0,38.0,-100.00,SSW,213,3.0,5.0,39,-99.99,,,0.00,769.260010,,2013-03-31 21:53:00,
2013-03-31 15:03:00,63.0,38.0,-100.00,SSW,213,3.0,5.0,39,-99.99,,,0.00,769.260010,,2013-03-31 22:03:00,
2013-03-31 15:12:00,63.0,38.0,-100.00,SSW,213,3.0,5.0,39,-99.99,,,0.00,769.260010,,2013-03-31 22:12:00,
2013-03-31 15:42:00,66.0,36.0,-100.00,SW,232,2.0,4.0,32,-99.99,,,0.00,674.190002,,2013-03-31 22:42:00,
2013-03-31 15:53:00,66.0,36.0,-100.00,SW,232,2.0,4.0,32,-99.99,,,0.00,674.190002,,2013-03-31 22:53:00,
2013-03-31 16:02:00,66.0,36.0,-100.00,SW,232,2.0,4.0,32,-99.99,,,0.00,674.190002,,2013-03-31 23:02:00,
2013-03-31 16:12:00,66.0,36.0,-100.00,SW,232,2.0,4.0,32,-99.99,,,0.00,674.190002,,2013-03-31 23:12:00,
2013-03-31 16:42:00,68.0,29.0,-100.00,SW,233,3.0,4.0,22,-99.99,,,0.00,531.469971,,2013-03-31 23:42:00,
2013-03-31 16:53:00,68.0,29.0,-100.00,SW,233,3.0,4.0,22,-99.99,,,0.00,531.469971,,2013-03-31 23:53:00,
2013-03-31 17:02:00,68.0,29.0,-100.00,SW,233,3.0,4.0,22,-99.99,,,0.00,531.469971,,2013-04-01 00:02:00,
2013-03-31 17:12:00,68.0,29.0,-100.00,SW,233,3.0,4.0,22,-99.99,,,0.00,531.469971,,2013-04-01 00:12:00,
2013-03-31 17:33:00,66.0,32.0,-100.00,ESE,122,2.0,3.0,28,-99.99,,,0.00,355.869995,,2013-04-01 00:33:00,
2013-03-31 17:43:00,66.0,32.0,-100.00,ESE,122,2.0,3.0,28,-99.99,,,0.00,355.869995,,2013-04-01 00:43:00,
2013-03-31 17:53:00,66.0,32.0,-100.00,ESE,122,2.0,3.0,28,-99.99,,,0.00,355.869995,,2013-04-01 00:53:00,
2013-03-31 18:02:00,66.0,32.0,-100.00,ESE,122,2.0,3.0,28,-99.99,,,0.00,355.869995,,2013-04-01 01:02:00,
2013-03-31 18:12:00,66.0,32.0,-100.00,ESE,122,2.0,3.0,28,-99.99,,,0.00,355.869995,,2013-04-01 01:12:00,
2013-03-31 18:42:00,63.0,37.0,-100.00,ESE,109,2.0,4.0,38,-99.99,,,0.00,167.940002,,2013-04-01 01:42:00,
2013-03-31 18:53:00,63.0,37.0,-100.00,ESE,109,2.0,4.0,38,-99.99,,,0.00,167.940002,,2013-04-01 01:53:00,
2013-03-31 19:02:00,63.0,37.0,-100.00,ESE,109,2.0,4.0,38,-99.99,,,0.00,167.940002,,2013-04-01 02:02:00,
2013-03-31 19:12:00,63.0,37.0,-100.00,ESE,109,2.0,4.0,38,-99.99,,,0.00,167.940002,,2013-04-01 02:12:00,
2013-03-31 19:42:00,58.0,39.0,-100.00,NE,37,1.0,2.0,49,-99.99,,,0.00,6.740000,,2013-04-01 02:42:00,
2013-03-31 19:53:00,58.0,39.0,-100.00,NE,37,1.0,2.0,49,-99.99,,,0.00,6.740000,,2013-04-01 02:53:00,
2013-03-31 20:02:00,58.0,39.0,-100.00,NE,37,1.0,2.0,49,-99.99,,,0.00,6.740000,,2013-04-01 03:02:00,
2013-03-31 20:12:00,58.0,39.0,-100.00,NE,37,1.0,2.0,49,-99.99,,,0.00,6.740000,,2013-04-01 03:12:00,
2013-03-31 20:43:00,54.0,40.0,-100.00,ENE,65,2.0,4.0,59,-99.99,,,0.00,0.120000,,2013-04-01 03:43:00,
2013-03-31 20:53:00,54.0,40.0,-100.00,ENE,65,2.0,4.0,59,-99.99,,,0.00,0.120000,,2013-04-01 03:53:00,
2013-03-31 21:02:00,54.0,40.0,-100.00,ENE,65,2.0,4.0,59,-99.99,,,0.00,0.120000,,2013-04-01 04:02:00,
2013-03-31 21:13:00,54.0,40.0,-100.00,ENE,65,2.0,4.0,59,-99.99,,,0.00,0.120000,,2013-04-01 04:13:00,
2013-03-31 21:43:00,52.0,38.0,-100.00,NNE,24,2.0,5.0,58,-99.99,,,0.00,0.120000,,2013-04-01 04:43:00,
2013-03-31 21:53:00,52.0,38.0,-100.00,NNE,24,2.0,5.0,58,-99.99,,,0.00,0.120000,,2013-04-01 04:53:00,
2013-03-31 22:02:00,52.0,38.0,-100.00,NNE,24,2.0,5.0,58,-99.99,,,0.00,0.120000,,2013-04-01 05:02:00,
2013-03-31 22:12:00,52.0,38.0,-100.00,NNE,24,2.0,5.0,58,-99.99,,,0.00,0.120000,,2013-04-01 05:12:00,
2013-03-31 22:42:00,50.0,39.0,-100.00,NNE,27,2.0,3.0,65,-99.99,,,0.00,0.120000,,2013-04-01 05:42:00,
2013-03-31 22:53:00,50.0,39.0,-100.00,NNE,27,2.0,3.0,65,-99.99,,,0.00,0.120000,,2013-04-01 05:53:00,
2013-03-31 23:02:00,50.0,39.0,-100.00,NNE,27,2.0,3.0,65,-99.99,,,0.00,0.120000,,2013-04-01 06:02:00,
2013-03-31 23:12:00,50.0,39.0,-100.00,NNE,27,2.0,3.0,65,-99.99,,,0.00,0.120000,,2013-04-01 06:12:00,
2013-03-31 23:42:00,48.0,38.0,-100.00,NE,39,2.0,4.0,69,-99.99,,,0.00,0.120000,,2013-04-01 06:42:00,
2013-03-31 23:52:00,48.0,38.0,-100.00,NE,39,2.0,4.0,69,-99.99,,,0.00,0.120000,,2013-04-01 06:52:00,